Time;durP1;ratioP1;P1;durP2;ratioP2;P2;SDS_P1;SDS_P2;PMS_P1;PMS_P2;Temp;Humidity;BMP_temperature;BMP_pressure;BME280_temperature;BME280_humidity;BME280_pressure;Samples;Min_cycle;Max_cycle;Signal;HPM_P1;HPM_P2
2021/12/06 08:49:14;;;;;;;132.93;36.77;;;2.60;99.90;;;;;;6180114;22;1422978;-79
2021/12/06 08:51:53;;;;;;;138.60;36.83;;;2.70;99.90;;;;;;6189200;23;20020;-79
2021/12/06 08:54:19;;;;;;;132.43;35.67;;;2.70;99.90;;;;;;6215976;23;20009;-79
2021/12/06 08:56:47;;;;;;;155.80;40.67;;;2.70;99.90;;;;;;6214663;23;20028;-79
2021/12/06 08:59:13;;;;;;;145.90;39.88;;;2.70;99.90;;;;;;6169861;22;20016;-79
2021/12/06 09:04:16;;;;;;;144.63;39.50;;;2.80;99.90;;;;;;6218201;22;20032;-80
2021/12/06 09:06:44;;;;;;;151.77;41.22;;;2.80;99.90;;;;;;6193403;23;20017;-80
2021/12/06 09:09:12;;;;;;;153.43;40.88;;;2.80;99.90;;;;;;6201354;23;20020;-80
2021/12/06 09:11:40;;;;;;;147.93;40.10;;;2.80;99.90;;;;;;6201457;23;20511;-80
2021/12/06 09:14:06;;;;;;;155.68;41.63;;;2.80;99.90;;;;;;6200417;23;20040;-80
2021/12/06 09:16:32;;;;;;;150.00;40.00;;;2.80;99.90;;;;;;6174739;23;20100;-80
2021/12/06 09:19:00;;;;;;;142.02;41.28;;;2.90;99.90;;;;;;6201172;23;20071;-80
2021/12/06 09:21:26;;;;;;;149.73;42.03;;;2.90;99.90;;;;;;6177214;23;20024;-80
2021/12/06 09:23:55;;;;;;;150.10;41.00;;;2.90;99.90;;;;;;6200353;23;20024;-80
2021/12/06 09:26:21;;;;;;;144.63;40.03;;;2.90;99.90;;;;;;6200872;23;20016;-80
2021/12/06 09:28:47;;;;;;;141.50;39.53;;;2.90;99.90;;;;;;6175068;23;20016;-80
2021/12/06 09:31:15;;;;;;;132.32;39.22;;;3.00;99.90;;;;;;6174885;23;20020;-80
2021/12/06 09:33:41;;;;;;;131.52;37.97;;;3.00;99.90;;;;;;6195569;23;20655;-80
2021/12/06 09:36:07;;;;;;;126.20;38.10;;;3.00;99.90;;;;;;6168328;23;20012;-80
2021/12/06 09:38:38;;;;;;;117.47;36.63;;;3.00;99.90;;;;;;6194510;23;20012;-80
2021/12/06 09:41:10;;;;;;;119.93;38.78;;;3.10;99.90;;;;;;6197756;23;20016;-80
2021/12/06 09:43:39;;;;;;;113.85;37.65;;;3.00;99.90;;;;;;6196347;23;20096;-80
2021/12/06 09:46:08;;;;;;;118.95;37.55;;;3.10;99.90;;;;;;6174767;23;20020;-80
2021/12/06 09:48:35;;;;;;;92.72;34.80;;;3.10;99.90;;;;;;6197954;23;20013;-80
2021/12/06 09:51:07;;;;;;;98.28;35.67;;;3.10;99.90;;;;;;6173862;23;20016;-80
2021/12/06 09:53:35;;;;;;;100.18;35.80;;;3.10;99.90;;;;;;6199391;23;20016;-80
2021/12/06 09:56:06;;;;;;;103.03;34.92;;;3.10;99.90;;;;;;6199088;23;20023;-80
2021/12/06 09:58:33;;;;;;;90.68;34.92;;;3.10;99.90;;;;;;6198754;23;20020;-80
2021/12/06 10:01:12;;;;;;;81.90;32.08;;;3.10;99.90;;;;;;6173460;23;20013;-80
2021/12/06 10:03:39;;;;;;;80.88;32.10;;;3.10;99.90;;;;;;6170723;23;20342;-80
2021/12/06 10:06:06;;;;;;;77.05;31.15;;;3.00;99.90;;;;;;6215628;23;20021;-80
2021/12/06 10:08:37;;;;;;;76.45;31.30;;;3.00;99.90;;;;;;6169024;23;20028;-80
2021/12/06 10:11:06;;;;;;;88.47;34.78;;;3.00;99.90;;;;;;6217671;23;20036;-80
2021/12/06 10:13:33;;;;;;;82.60;34.13;;;3.00;99.90;;;;;;6218150;23;20023;-80
2021/12/06 10:15:59;;;;;;;80.85;33.90;;;3.00;99.90;;;;;;6169107;23;20079;-79
2021/12/06 10:18:25;;;;;;;85.60;32.47;;;3.00;99.90;;;;;;6221072;23;20025;-80
2021/12/06 10:20:51;;;;;;;72.50;31.73;;;3.00;99.90;;;;;;6170397;23;20013;-80
2021/12/06 10:23:18;;;;;;;81.55;32.45;;;3.10;99.90;;;;;;6219797;23;20048;-80
2021/12/06 10:25:49;;;;;;;81.38;31.73;;;3.00;99.90;;;;;;6172322;23;20315;-80
2021/12/06 10:28:17;;;;;;;79.63;31.80;;;3.00;99.90;;;;;;6221606;23;20341;-80
2021/12/06 10:30:54;;;;;;;73.65;29.95;;;3.10;99.90;;;;;;6221693;23;20083;-80
2021/12/06 10:33:23;;;;;;;77.55;31.23;;;3.10;99.90;;;;;;6221981;23;20017;-80
2021/12/06 10:35:52;;;;;;;75.13;30.27;;;3.10;99.90;;;;;;6221688;23;20036;-82
2021/12/06 10:38:33;;;;;;;72.15;30.95;;;3.00;99.90;;;;;;6194886;23;20060;-82
2021/12/06 10:41:12;;;;;;;69.72;29.48;;;3.00;99.90;;;;;;6219542;23;20036;-82
2021/12/06 10:43:39;;;;;;;69.43;28.73;;;2.90;99.90;;;;;;6193937;23;20013;-82
2021/12/06 10:46:06;;;;;;;64.82;29.48;;;3.00;99.90;;;;;;6168890;23;20607;-82
2021/12/06 10:48:36;;;;;;;75.28;29.95;;;3.00;99.90;;;;;;6219846;23;20020;-82
2021/12/06 10:51:18;;;;;;;72.22;29.92;;;3.00;99.90;;;;;;6194572;23;20017;-82
2021/12/06 10:53:58;;;;;;;72.85;30.00;;;2.90;99.90;;;;;;6219888;23;20101;-82
2021/12/06 10:56:36;;;;;;;78.35;29.92;;;2.90;99.90;;;;;;6219555;23;20013;-82
2021/12/06 10:59:05;;;;;;;80.97;31.52;;;2.90;99.90;;;;;;6172292;23;20509;-82
2021/12/06 11:01:32;;;;;;;76.88;30.05;;;2.90;99.90;;;;;;6219470;23;20492;-82
2021/12/06 11:04:01;;;;;;;81.22;29.85;;;2.80;99.90;;;;;;6224760;23;20044;-82
2021/12/06 11:06:32;;;;;;;86.32;31.83;;;2.80;99.90;;;;;;6174758;23;20023;-82
2021/12/06 11:09:01;;;;;;;81.50;32.30;;;2.80;99.90;;;;;;6174672;23;20072;-82
2021/12/06 11:11:31;;;;;;;95.65;32.38;;;2.80;99.90;;;;;;6175783;23;20009;-82
2021/12/06 11:14:04;;;;;;;88.03;32.42;;;2.80;99.90;;;;;;6175376;23;20083;-82
2021/12/06 11:16:33;;;;;;;88.90;31.40;;;2.80;99.90;;;;;;6174388;23;20020;-82
2021/12/06 11:19:00;;;;;;;86.18;32.75;;;2.80;99.90;;;;;;6199678;23;20341;-82
2021/12/06 11:21:44;;;;;;;93.55;34.42;;;2.80;99.90;;;;;;6174520;23;20043;-82
2021/12/06 11:24:29;;;;;;;99.95;34.17;;;2.80;99.90;;;;;;6175560;23;20043;-82
2021/12/06 11:27:09;;;;;;;97.38;34.15;;;2.80;99.90;;;;;;6172551;23;20055;-82
2021/12/06 11:29:50;;;;;;;91.97;33.85;;;2.90;99.90;;;;;;6174762;23;20429;-82
2021/12/06 11:32:37;;;;;;;111.90;35.63;;;2.90;99.90;;;;;;6173186;23;20012;-82
2021/12/06 11:35:06;;;;;;;99.38;33.38;;;2.90;99.90;;;;;;6194320;23;20020;-82
2021/12/06 11:37:41;;;;;;;98.35;33.65;;;2.90;99.90;;;;;;6193847;23;20013;-82
2021/12/06 11:40:12;;;;;;;101.95;34.38;;;2.90;99.90;;;;;;6193279;23;20107;-82
2021/12/06 11:42:46;;;;;;;102.80;34.38;;;2.90;99.90;;;;;;6170954;23;20013;-82
2021/12/06 11:45:12;;;;;;;108.00;35.05;;;2.90;99.90;;;;;;6193892;23;20050;-82
2021/12/06 11:47:38;;;;;;;101.30;36.60;;;2.90;99.90;;;;;;6167878;23;20464;-82
2021/12/06 11:50:04;;;;;;;102.20;36.63;;;2.90;99.90;;;;;;6144439;23;20017;-82
2021/12/06 11:52:32;;;;;;;104.90;35.35;;;2.90;99.90;;;;;;6144123;23;20013;-82
2021/12/06 11:55:06;;;;;;;104.53;34.42;;;2.90;99.90;;;;;;6168457;23;20016;-82
2021/12/06 11:57:39;;;;;;;101.28;34.20;;;2.90;99.90;;;;;;6169515;23;20024;-82
2021/12/06 12:00:11;;;;;;;95.10;33.38;;;2.90;99.90;;;;;;6170165;23;20023;-82
2021/12/06 12:02:40;;;;;;;105.45;35.47;;;2.90;99.90;;;;;;6165283;23;20027;-82
2021/12/06 12:05:22;;;;;;;100.72;34.33;;;2.90;99.90;;;;;;6164455;23;20025;-82
2021/12/06 12:08:06;;;;;;;106.55;35.17;;;2.90;99.90;;;;;;6213245;23;20021;-82
2021/12/06 12:10:41;;;;;;;109.10;35.75;;;3.00;99.90;;;;;;6188756;23;20024;-82
2021/12/06 12:13:08;;;;;;;105.75;37.97;;;3.00;99.90;;;;;;6189612;23;20095;-82
2021/12/06 12:15:36;;;;;;;115.65;37.30;;;3.00;99.90;;;;;;6213733;23;20020;-82
2021/12/06 12:18:02;;;;;;;117.75;37.15;;;3.00;99.90;;;;;;6213586;23;20020;-82
2021/12/06 12:20:30;;;;;;;111.05;36.70;;;3.00;99.90;;;;;;6163204;23;20043;-82
2021/12/06 12:23:00;;;;;;;110.25;37.40;;;3.10;99.90;;;;;;6161976;23;20043;-82
2021/12/06 12:25:38;;;;;;;111.28;37.13;;;3.00;99.90;;;;;;6163138;23;20024;-82
2021/12/06 12:30:36;;;;;;;113.75;36.65;;;3.00;99.90;;;;;;6190024;23;20021;-82
2021/12/06 12:33:06;;;;;;;116.95;37.97;;;3.10;99.90;;;;;;6166006;23;20013;-82
2021/12/06 12:35:34;;;;;;;121.22;39.03;;;3.10;99.90;;;;;;6221161;23;20016;-82
2021/12/06 12:38:00;;;;;;;107.75;37.88;;;3.20;99.90;;;;;;6170391;23;20020;-82
2021/12/06 12:40:37;;;;;;;115.30;40.07;;;3.30;99.90;;;;;;6171466;23;20017;-82
2021/12/06 12:43:13;;;;;;;111.47;38.92;;;3.30;99.90;;;;;;6221368;23;20077;-82
2021/12/06 12:46:02;;;;;;;109.97;38.38;;;3.30;99.90;;;;;;6219936;23;20364;-82
2021/12/06 12:48:42;;;;;;;100.07;37.40;;;3.40;99.90;;;;;;6219393;23;20017;-82
2021/12/06 12:51:11;;;;;;;107.97;38.63;;;3.40;99.90;;;;;;6194610;23;20013;-82
2021/12/06 12:54:09;;;;;;;98.55;37.40;;;3.50;99.90;;;;;;6220319;23;20071;-82
2021/12/06 12:56:41;;;;;;;88.68;36.10;;;3.50;99.90;;;;;;6193370;23;20119;-82
2021/12/06 12:59:24;;;;;;;95.45;36.63;;;3.40;99.90;;;;;;6220213;23;20040;-82
2021/12/06 13:02:22;;;;;;;86.78;36.40;;;3.50;99.90;;;;;;6219382;23;20017;-82
2021/12/06 13:04:58;;;;;;;87.38;36.55;;;3.40;99.90;;;;;;6169375;23;20025;-82
2021/12/06 13:07:36;;;;;;;88.95;36.45;;;3.40;99.90;;;;;;6169529;23;20493;-82
2021/12/06 13:10:21;;;;;;;93.43;38.17;;;3.40;99.90;;;;;;6145878;23;20018;-82
2021/12/06 13:13:30;;;;;;;88.25;36.78;;;3.40;99.90;;;;;;6170164;23;20016;-82
2021/12/06 13:16:07;;;;;;;87.43;37.42;;;3.40;99.90;;;;;;6144039;23;20093;-82
2021/12/06 13:19:38;;;;;;;92.65;37.05;;;3.40;99.90;;;;;;6144969;23;20024;-82
2021/12/06 13:22:07;;;;;;;94.18;36.72;;;3.40;99.90;;;;;;6165467;23;20091;-82
2021/12/06 13:24:37;;;;;;;89.45;37.72;;;3.40;99.90;;;;;;6169994;23;20019;-82
2021/12/06 13:27:18;;;;;;;88.82;38.50;;;3.40;99.90;;;;;;6169120;23;20021;-82
2021/12/06 13:29:55;;;;;;;97.57;41.05;;;3.40;99.90;;;;;;6169647;23;20082;-82
2021/12/06 13:32:32;;;;;;;93.50;39.85;;;3.40;99.90;;;;;;6167276;23;20442;-82
2021/12/06 13:35:22;;;;;;;93.63;39.45;;;3.40;99.90;;;;;;6143404;23;20512;-82
2021/12/06 13:38:19;;;;;;;92.72;40.42;;;3.40;99.90;;;;;;6137585;23;20048;-82
2021/12/06 13:41:12;;;;;;;88.30;38.20;;;3.40;99.90;;;;;;6166507;23;20017;-82
2021/12/06 13:43:51;;;;;;;101.85;41.40;;;3.30;99.90;;;;;;6139666;23;20257;-82
2021/12/06 13:46:22;;;;;;;97.88;40.75;;;3.40;99.90;;;;;;6162262;23;20021;-82
2021/12/06 13:48:52;;;;;;;105.65;42.22;;;3.30;99.90;;;;;;6166875;23;20028;-80
2021/12/06 13:51:28;;;;;;;94.88;39.97;;;3.30;99.90;;;;;;6168193;23;20086;-80
2021/12/06 13:54:09;;;;;;;97.22;41.42;;;3.30;99.90;;;;;;6167421;23;20017;-80
2021/12/06 13:56:55;;;;;;;98.25;40.05;;;3.30;99.90;;;;;;6143603;23;20017;-80
2021/12/06 13:59:27;;;;;;;;;;;3.20;99.90;;;;;;6140570;23;20017;-80
2021/12/06 14:01:56;;;;;;;86.38;37.03;;;3.20;99.90;;;;;;6165678;23;20206;-80
2021/12/06 14:04:23;;;;;;;83.80;36.60;;;3.20;99.90;;;;;;6161135;23;20045;-80
2021/12/06 14:06:57;;;;;;;84.20;36.67;;;3.20;99.90;;;;;;6137944;23;20013;-80
2021/12/06 14:09:29;;;;;;;80.05;35.28;;;3.20;99.90;;;;;;6164758;23;20067;-80
2021/12/06 14:11:59;;;;;;;82.22;36.60;;;3.20;99.90;;;;;;6188367;23;20013;-80
2021/12/06 14:14:27;;;;;;;83.07;36.00;;;3.10;99.90;;;;;;6189792;23;20013;-80
2021/12/06 14:16:54;;;;;;;76.78;34.95;;;3.30;99.90;;;;;;6140305;23;20408;-80
2021/12/06 14:19:25;;;;;;;84.88;36.35;;;3.10;99.90;;;;;;6165009;23;20016;-80
2021/12/06 14:21:52;;;;;;;80.90;37.20;;;3.20;99.90;;;;;;6163848;23;20017;-80
2021/12/06 14:24:18;;;;;;;84.38;37.15;;;3.20;99.90;;;;;;6165970;23;20017;-80
2021/12/06 14:26:44;;;;;;;80.05;35.17;;;3.20;99.90;;;;;;6139369;23;20013;-80
2021/12/06 14:29:25;;;;;;;78.32;34.95;;;3.20;99.90;;;;;;6140192;23;20017;-80
2021/12/06 14:31:54;;;;;;;88.07;36.85;;;3.20;99.90;;;;;;6164424;23;20013;-80
2021/12/06 14:34:23;;;;;;;88.93;36.28;;;3.20;99.90;;;;;;6189728;23;20057;-80
2021/12/06 14:36:50;;;;;;;90.55;35.92;;;3.20;99.90;;;;;;6163387;23;20017;-80
2021/12/06 14:39:20;;;;;;;81.25;37.42;;;3.20;99.90;;;;;;6140378;23;20068;-80
2021/12/06 14:42:12;;;;;;;80.60;34.83;;;3.10;99.90;;;;;;6165339;23;20013;-80
2021/12/06 14:44:49;;;;;;;75.47;32.83;;;3.10;99.90;;;;;;6173046;23;20024;-80
2021/12/06 14:47:27;;;;;;;76.95;33.45;;;3.10;99.90;;;;;;6163886;23;20021;-80
2021/12/06 14:49:53;;;;;;;76.00;34.28;;;3.10;99.90;;;;;;6162853;23;20021;-80
2021/12/06 14:52:30;;;;;;;84.13;36.42;;;3.10;99.90;;;;;;6163624;23;20075;-80
2021/12/06 14:57:48;;;;;;;83.38;33.78;;;3.10;99.90;;;;;;6184505;23;20052;-80
2021/12/06 15:00:27;;;;;;;77.18;34.42;;;3.10;99.90;;;;;;6186293;23;20036;-80
2021/12/06 15:02:56;;;;;;;87.55;37.28;;;3.10;99.90;;;;;;6161899;23;20436;-80
2021/12/06 15:05:35;;;;;;;82.22;34.60;;;3.10;99.90;;;;;;6161455;23;20040;-80
2021/12/06 15:08:08;;;;;;;82.68;35.55;;;3.10;99.90;;;;;;6161619;23;20028;-80
2021/12/06 15:10:39;;;;;;;81.40;36.25;;;3.10;99.90;;;;;;6162287;23;20013;-80
2021/12/06 15:13:05;;;;;;;75.93;32.40;;;3.00;99.90;;;;;;6186127;23;20429;-80
2021/12/06 15:15:34;;;;;;;77.25;32.72;;;3.10;99.90;;;;;;6136499;23;20017;-80
2021/12/06 15:18:03;;;;;;;79.88;33.28;;;3.10;99.90;;;;;;6161267;23;20100;-80
2021/12/06 15:20:31;;;;;;;77.70;33.13;;;3.10;99.90;;;;;;6162753;23;20496;-80
2021/12/06 15:22:58;;;;;;;74.80;32.55;;;3.10;99.90;;;;;;6186193;23;20017;-80
2021/12/06 15:25:24;;;;;;;80.03;34.00;;;3.10;99.90;;;;;;6161455;23;20021;-80
2021/12/06 15:27:51;;;;;;;64.95;31.30;;;3.10;99.90;;;;;;6136932;23;20069;-80
2021/12/06 15:30:19;;;;;;;71.55;33.53;;;3.10;99.90;;;;;;6162814;23;20052;-80
2021/12/06 15:32:49;;;;;;;63.75;30.80;;;3.10;99.90;;;;;;6164896;23;20009;-80
2021/12/06 15:35:32;;;;;;;64.60;31.02;;;3.10;99.90;;;;;;6164739;23;20044;-80
2021/12/06 15:37:58;;;;;;;62.45;30.20;;;3.10;99.90;;;;;;6188547;23;20013;-80
2021/12/06 15:40:25;;;;;;;65.00;31.67;;;3.10;99.90;;;;;;6139645;23;20104;-80
2021/12/06 15:42:53;;;;;;;63.95;31.60;;;3.10;99.90;;;;;;6115169;23;20017;-80
2021/12/06 15:45:24;;;;;;;66.55;29.73;;;3.10;99.90;;;;;;6188241;23;20021;-80
2021/12/06 15:47:50;;;;;;;65.07;30.77;;;3.20;99.90;;;;;;6162934;23;20040;-80
2021/12/06 15:50:21;;;;;;;54.85;28.90;;;3.20;99.90;;;;;;6164109;23;20017;-80
2021/12/06 15:52:49;;;;;;;62.15;29.77;;;3.20;99.90;;;;;;6188288;23;20024;-80
2021/12/06 15:55:27;;;;;;;57.97;29.80;;;3.20;99.90;;;;;;6163398;23;20548;-80
2021/12/06 15:58:01;;;;;;;58.08;29.15;;;3.10;99.90;;;;;;6188663;23;20021;-80
2021/12/06 16:00:31;;;;;;;53.85;27.65;;;3.10;99.90;;;;;;6163906;23;20525;-80
2021/12/06 16:02:58;;;;;;;56.40;28.90;;;3.10;99.90;;;;;;6189588;23;20096;-80
2021/12/06 16:05:31;;;;;;;51.25;27.50;;;3.10;99.90;;;;;;6139433;23;20025;-80
2021/12/06 16:08:00;;;;;;;56.20;28.08;;;3.10;99.90;;;;;;6186861;23;20017;-80
2021/12/06 16:10:28;;;;;;;50.83;27.00;;;3.10;99.90;;;;;;6163889;23;20024;-80
2021/12/06 16:12:58;;;;;;;52.58;26.48;;;3.10;99.90;;;;;;6188821;23;20060;-80
2021/12/06 16:15:28;;;;;;;54.10;28.38;;;3.10;99.90;;;;;;6163409;23;20021;-80
2021/12/06 16:17:57;;;;;;;56.22;28.50;;;3.00;99.90;;;;;;6187866;23;20068;-80
2021/12/06 16:20:25;;;;;;;56.70;28.23;;;3.00;99.90;;;;;;6163411;23;20329;-80
2021/12/06 16:22:52;;;;;;;55.65;28.35;;;3.00;99.90;;;;;;6132690;23;20017;-80
2021/12/06 16:25:21;;;;;;;55.13;28.85;;;3.00;99.90;;;;;;6134926;23;20017;-80
2021/12/06 16:28:05;;;;;;;49.78;27.05;;;3.00;99.90;;;;;;6160836;23;20017;-80
2021/12/06 16:30:31;;;;;;;51.00;26.85;;;3.00;99.90;;;;;;6161579;23;20563;-80
2021/12/06 16:32:58;;;;;;;56.55;27.48;;;2.90;99.90;;;;;;6162202;23;20048;-79
2021/12/06 16:35:27;;;;;;;57.38;28.77;;;3.00;99.90;;;;;;6161394;23;20017;-79
2021/12/06 16:38:15;;;;;;;49.33;26.13;;;3.00;99.90;;;;;;6136791;23;20020;-80
2021/12/06 16:40:40;;;;;;;50.58;26.83;;;2.90;99.90;;;;;;6160685;23;20047;-80
2021/12/06 16:43:08;;;;;;;51.50;27.37;;;2.90;99.90;;;;;;6160711;23;20044;-80
2021/12/06 16:45:35;;;;;;;51.40;27.17;;;2.90;99.90;;;;;;6186144;23;20024;-80
2021/12/06 16:48:08;;;;;;;50.70;27.55;;;2.80;99.90;;;;;;6186144;23;20017;-80
2021/12/06 16:50:39;;;;;;;46.45;25.85;;;2.80;99.90;;;;;;6159240;23;20052;-80
2021/12/06 16:53:10;;;;;;;49.08;26.02;;;2.80;99.90;;;;;;6187533;23;20354;-80
2021/12/06 16:55:54;;;;;;;51.22;27.67;;;2.80;99.90;;;;;;6159833;23;20017;-80
2021/12/06 16:58:27;;;;;;;51.47;26.67;;;2.70;99.90;;;;;;6185178;23;20434;-80
2021/12/06 17:00:55;;;;;;;50.22;26.10;;;2.80;99.90;;;;;;6158973;23;20021;-80
2021/12/06 17:03:51;;;;;;;48.08;26.73;;;2.70;99.90;;;;;;6183875;23;20025;-80
2021/12/06 17:06:24;;;;;;;49.53;25.73;;;2.70;99.90;;;;;;6182052;23;20088;-80
2021/12/06 17:08:55;;;;;;;49.85;26.83;;;2.70;99.90;;;;;;6163258;23;20028;-80
2021/12/06 17:11:27;;;;;;;48.08;24.67;;;2.70;99.90;;;;;;6164151;23;20072;-80
2021/12/06 17:14:06;;;;;;;47.15;25.58;;;2.70;99.90;;;;;;6162611;23;20434;-80
2021/12/06 17:16:37;;;;;;;46.25;25.42;;;2.70;99.90;;;;;;6162592;23;20470;-80
2021/12/06 17:19:08;;;;;;;44.97;25.55;;;2.70;99.90;;;;;;6162107;23;20076;-80
2021/12/06 17:21:34;;;;;;;46.67;24.60;;;2.70;99.90;;;;;;6159512;23;20013;-80
2021/12/06 17:24:00;;;;;;;48.67;25.43;;;2.70;99.90;;;;;;6138164;23;20322;-80
2021/12/06 17:26:27;;;;;;;45.47;24.97;;;2.70;99.90;;;;;;6137663;23;20248;-80
2021/12/06 17:29:04;;;;;;;45.65;25.65;;;2.70;99.90;;;;;;6162968;23;20485;-80
2021/12/06 17:31:33;;;;;;;48.03;24.95;;;2.70;99.90;;;;;;6164050;23;20132;-80
2021/12/06 17:34:04;;;;;;;45.88;24.88;;;2.60;99.90;;;;;;6162400;23;20521;-80
2021/12/06 17:36:33;;;;;;;46.95;24.63;;;2.60;99.90;;;;;;6187048;23;20013;-80
2021/12/06 17:38:59;;;;;;;44.35;23.88;;;2.60;99.90;;;;;;6187182;23;20318;-80
2021/12/06 17:41:28;;;;;;;46.45;24.20;;;2.60;99.90;;;;;;6135548;23;20373;-80
2021/12/06 17:43:56;;;;;;;44.60;23.42;;;2.60;99.90;;;;;;6136009;23;20074;-80
2021/12/06 17:46:23;;;;;;;45.28;23.33;;;2.60;99.90;;;;;;6018705;23;20695;-80
2021/12/06 17:48:50;;;;;;;43.05;24.27;;;2.50;99.90;;;;;;6182491;23;20088;-80
2021/12/06 17:51:16;;;;;;;44.72;23.50;;;2.50;99.90;;;;;;6129671;23;20052;-80
2021/12/06 17:53:42;;;;;;;42.20;23.10;;;2.60;99.90;;;;;;6108783;23;20477;-80
2021/12/06 17:56:08;;;;;;;43.55;23.45;;;2.50;99.90;;;;;;6155415;23;20017;-80
2021/12/06 17:59:16;;;;;;;43.38;23.25;;;2.60;99.90;;;;;;6131140;23;20013;-81
2021/12/06 18:01:36;;;;;;;42.58;22.05;;;2.50;99.90;;;;;;6137184;23;20022;-80
2021/12/06 18:04:05;;;;;;;42.28;23.23;;;2.50;99.90;;;;;;6131345;23;20061;-80
2021/12/06 18:06:31;;;;;;;49.33;24.35;;;2.50;99.90;;;;;;6127915;23;20077;-80
2021/12/06 18:08:57;;;;;;;43.57;23.13;;;2.50;99.90;;;;;;6131014;23;20041;-80
2021/12/06 18:11:23;;;;;;;45.80;23.53;;;2.50;99.90;;;;;;6131286;23;20013;-80
2021/12/06 18:13:50;;;;;;;45.23;24.17;;;2.50;99.90;;;;;;6106403;23;20013;-80
2021/12/06 18:16:16;;;;;;;45.83;24.23;;;2.50;99.90;;;;;;6108178;23;20092;-80
2021/12/06 18:18:42;;;;;;;43.88;23.40;;;2.50;99.90;;;;;;6158310;23;20064;-80
2021/12/06 18:21:10;;;;;;;45.37;24.57;;;2.50;99.90;;;;;;6133424;23;20387;-80
2021/12/06 18:23:38;;;;;;;40.58;22.65;;;2.50;99.90;;;;;;6134519;23;20446;-80
2021/12/06 18:26:04;;;;;;;45.08;23.52;;;2.50;99.90;;;;;;6134197;23;20013;-80
2021/12/06 18:28:34;;;;;;;43.78;23.10;;;2.60;99.90;;;;;;6110583;23;20017;-80
2021/12/06 18:31:00;;;;;;;42.80;22.38;;;2.60;99.90;;;;;;6159438;23;20017;-80
2021/12/06 18:33:26;;;;;;;40.10;20.80;;;2.60;99.90;;;;;;6135803;23;20342;-80
2021/12/06 18:35:55;;;;;;;40.50;21.38;;;2.60;99.90;;;;;;6134932;23;20096;-80
2021/12/06 18:38:25;;;;;;;44.45;23.75;;;2.60;99.90;;;;;;6134038;23;20052;-80
2021/12/06 18:40:58;;;;;;;43.85;22.33;;;2.60;99.90;;;;;;6136175;23;20338;-80
2021/12/06 18:46:00;;;;;;;40.40;22.35;;;2.70;99.90;;;;;;6131835;23;20398;-80
2021/12/06 18:48:26;;;;;;;40.38;21.42;;;2.70;99.90;;;;;;6132897;23;20040;-80
2021/12/06 18:50:53;;;;;;;37.67;21.05;;;2.70;99.90;;;;;;6108471;23;20690;-80
2021/12/06 18:53:18;;;;;;;41.00;21.13;;;2.70;99.90;;;;;;6132907;23;20009;-80
2021/12/06 18:55:44;;;;;;;40.13;21.67;;;2.70;99.90;;;;;;6132892;23;20151;-80
2021/12/06 18:58:10;;;;;;;42.53;23.17;;;2.70;99.90;;;;;;6132607;23;20076;-80
2021/12/06 19:00:37;;;;;;;43.73;20.77;;;2.70;99.90;;;;;;6132992;23;20059;-80
2021/12/06 19:03:04;;;;;;;40.17;22.67;;;2.80;99.90;;;;;;6133852;23;20019;-80
2021/12/06 19:05:30;;;;;;;41.45;22.20;;;2.80;99.90;;;;;;6129628;23;20025;-80
2021/12/06 19:07:57;;;;;;;40.90;22.33;;;2.80;99.90;;;;;;6105431;23;20017;-80
2021/12/06 19:10:27;;;;;;;46.08;24.20;;;2.80;99.90;;;;;;6129613;23;20040;-80
2021/12/06 19:12:54;;;;;;;45.17;24.40;;;2.90;99.90;;;;;;6155780;23;20020;-80
2021/12/06 19:15:20;;;;;;;48.42;25.08;;;2.80;99.90;;;;;;6130892;23;20009;-80
2021/12/06 19:17:50;;;;;;;51.63;25.17;;;2.90;99.90;;;;;;6131924;23;20013;-80
2021/12/06 19:20:19;;;;;;;44.42;23.73;;;2.90;99.90;;;;;;6132091;23;20028;-80
2021/12/06 19:22:46;;;;;;;44.08;24.05;;;2.90;99.90;;;;;;6133059;23;20014;-80
2021/12/06 19:25:12;;;;;;;47.95;24.38;;;3.00;99.90;;;;;;6131895;23;20535;-80
2021/12/06 19:27:41;;;;;;;45.22;24.45;;;2.90;99.90;;;;;;6133176;23;20389;-80
2021/12/06 19:30:11;;;;;;;53.08;27.42;;;2.90;99.90;;;;;;6109474;23;20021;-80
2021/12/06 19:32:37;;;;;;;51.92;26.55;;;2.90;99.90;;;;;;6158746;23;20017;-80
2021/12/06 19:35:05;;;;;;;46.13;23.85;;;2.90;99.90;;;;;;6157779;23;20014;-80
2021/12/06 19:37:31;;;;;;;47.08;23.00;;;2.90;99.90;;;;;;6135414;23;20509;-80
2021/12/06 19:39:57;;;;;;;46.92;23.00;;;2.90;99.90;;;;;;6110684;23;20017;-80
2021/12/06 19:42:22;;;;;;;44.07;23.70;;;2.90;99.90;;;;;;6134912;23;20278;-80
2021/12/06 19:44:50;;;;;;;45.47;23.30;;;3.00;99.90;;;;;;6133731;23;20024;-79
2021/12/06 19:47:20;;;;;;;45.47;23.58;;;2.90;99.90;;;;;;6156174;23;20049;-80
2021/12/06 19:49:50;;;;;;;46.97;24.90;;;2.90;99.90;;;;;;6131574;23;20101;-80
2021/12/06 19:52:16;;;;;;;43.97;23.20;;;2.90;99.90;;;;;;6131968;23;20040;-80
2021/12/06 19:54:42;;;;;;;44.53;24.65;;;2.90;99.90;;;;;;6110117;23;20013;-79
2021/12/06 19:57:08;;;;;;;42.22;22.50;;;2.90;99.90;;;;;;6131975;23;20017;-79
2021/12/06 19:59:33;;;;;;;49.77;24.57;;;2.90;99.90;;;;;;6131897;23;20032;-79
2021/12/06 20:02:00;;;;;;;44.47;22.63;;;2.90;99.90;;;;;;6132012;23;20022;-80
2021/12/06 20:04:26;;;;;;;44.20;22.38;;;2.90;99.90;;;;;;6155890;23;20029;-79
2021/12/06 20:06:52;;;;;;;45.70;23.17;;;2.90;99.90;;;;;;6132161;23;20110;-80
2021/12/06 20:09:19;;;;;;;39.92;21.50;;;2.90;99.90;;;;;;6132882;23;20273;-80
2021/12/06 20:11:45;;;;;;;39.53;21.75;;;2.90;99.90;;;;;;6132988;23;20013;-80
2021/12/06 20:14:11;;;;;;;44.10;23.27;;;2.90;99.90;;;;;;6134021;23;20036;-80
2021/12/06 20:16:37;;;;;;;42.73;21.43;;;2.80;99.90;;;;;;6160339;23;20333;-81
2021/12/06 20:19:03;;;;;;;39.20;21.10;;;2.80;99.90;;;;;;6136844;23;20108;-80
2021/12/06 20:21:29;;;;;;;37.85;20.75;;;2.80;99.90;;;;;;6135914;23;20029;-81
2021/12/06 20:23:56;;;;;;;38.57;21.57;;;2.80;99.90;;;;;;6136628;23;20017;-80
2021/12/06 20:26:23;;;;;;;39.28;20.95;;;2.90;99.90;;;;;;6160681;23;20017;-80
2021/12/06 20:28:51;;;;;;;35.35;20.40;;;2.80;99.90;;;;;;6135492;23;20527;-80
2021/12/06 20:31:17;;;;;;;38.10;20.20;;;2.80;99.90;;;;;;6161101;23;20025;-80
2021/12/06 20:33:44;;;;;;;39.47;21.83;;;2.80;99.90;;;;;;6135620;23;20013;-80
2021/12/06 20:36:10;;;;;;;43.30;21.40;;;2.80;99.90;;;;;;6134733;23;20017;-80
2021/12/06 20:38:36;;;;;;;39.85;21.02;;;2.80;99.90;;;;;;6136011;23;20032;-80
2021/12/06 20:41:03;;;;;;;33.50;19.20;;;2.80;99.90;;;;;;6135711;23;20044;-80
2021/12/06 20:43:34;;;;;;;36.85;20.30;;;2.70;99.90;;;;;;6111768;23;20069;-80
2021/12/06 20:46:01;;;;;;;36.03;19.65;;;2.70;99.90;;;;;;6135278;23;20036;-80
2021/12/06 20:48:27;;;;;;;37.85;19.88;;;2.70;99.90;;;;;;6135572;23;20063;-80
2021/12/06 20:50:53;;;;;;;36.37;19.47;;;2.70;99.90;;;;;;6134901;23;20022;-80
2021/12/06 20:53:19;;;;;;;35.70;19.38;;;2.60;99.90;;;;;;6133265;23;20252;-80
2021/12/06 20:55:45;;;;;;;38.43;19.70;;;2.60;99.90;;;;;;6134533;23;20362;-80
2021/12/06 20:58:11;;;;;;;34.17;19.70;;;2.60;99.90;;;;;;6133035;23;20524;-80
2021/12/06 21:00:39;;;;;;;39.25;20.45;;;2.60;99.90;;;;;;6132542;23;20025;-80
2021/12/06 21:03:05;;;;;;;35.58;19.08;;;2.60;99.90;;;;;;6134832;23;20025;-80
2021/12/06 21:05:31;;;;;;;34.40;19.13;;;2.60;99.90;;;;;;6157143;23;20077;-80
2021/12/06 21:07:57;;;;;;;33.90;18.35;;;2.50;99.90;;;;;;6157856;23;20086;-81
2021/12/06 21:10:32;;;;;;;37.03;19.65;;;2.60;99.90;;;;;;6156222;23;20013;-80
2021/12/06 21:13:09;;;;;;;35.72;19.77;;;2.50;99.90;;;;;;6131813;23;20465;-80
2021/12/06 21:18:25;;;;;;;36.35;20.55;;;2.60;99.90;;;;;;6157036;23;20345;-80
2021/12/06 21:20:52;;;;;;;34.72;18.92;;;2.50;99.90;;;;;;6133305;23;20021;-80
2021/12/06 21:23:18;;;;;;;38.08;19.33;;;2.50;99.90;;;;;;6133761;23;20025;-81
2021/12/06 21:25:44;;;;;;;35.90;19.07;;;2.50;99.90;;;;;;6134420;23;20331;-80
2021/12/06 21:28:10;;;;;;;36.17;19.58;;;2.50;99.90;;;;;;6133513;23;20021;-80
2021/12/06 21:30:36;;;;;;;35.03;18.70;;;2.50;99.90;;;;;;6158697;23;20069;-80
2021/12/06 21:33:05;;;;;;;36.97;19.07;;;2.50;99.90;;;;;;6133917;23;20013;-80
2021/12/06 21:35:30;;;;;;;29.15;16.95;;;2.40;99.90;;;;;;6158726;23;20013;-80
2021/12/06 21:37:57;;;;;;;32.55;18.58;;;2.50;99.90;;;;;;6110498;23;20013;-80
2021/12/06 21:40:27;;;;;;;31.55;17.60;;;2.50;99.90;;;;;;6134191;23;20499;-80
2021/12/06 21:42:55;;;;;;;33.15;18.25;;;2.60;99.90;;;;;;6110198;23;20025;-80
2021/12/06 21:45:22;;;;;;;30.00;17.27;;;2.50;99.90;;;;;;6134386;23;20429;-80
2021/12/06 21:47:49;;;;;;;32.03;17.35;;;2.40;99.90;;;;;;6133758;23;20134;-80
2021/12/06 21:50:15;;;;;;;31.15;18.40;;;2.40;99.90;;;;;;6133655;23;20010;-80
2021/12/06 21:52:42;;;;;;;30.92;18.27;;;2.40;99.90;;;;;;6134003;23;20082;-80
2021/12/06 21:55:10;;;;;;;32.53;17.60;;;2.40;99.90;;;;;;6134842;23;20032;-80